createdAt,value
2023-08-23T00:00:38.924Z,28.97
2023-08-23T00:03:07.444Z,26.03
2023-08-23T00:05:35.731Z,28.63
2023-08-23T00:08:07.174Z,28.07
2023-08-23T00:10:36.778Z,25.67
2023-08-23T00:13:05.327Z,28.50
2023-08-23T00:15:34.183Z,27.23
2023-08-23T00:18:02.482Z,23.40
2023-08-23T00:20:33.719Z,21.83
2023-08-23T00:23:01.968Z,25.47
2023-08-23T00:25:30.380Z,27.70
2023-08-23T00:28:12.813Z,22.43
2023-08-23T00:30:49.434Z,21.90
2023-08-23T00:33:17.839Z,23.87
2023-08-23T00:35:46.233Z,25.77
2023-08-23T00:38:15.136Z,25.50
2023-08-23T00:40:43.435Z,24.23
2023-08-23T00:43:13.284Z,24.73
2023-08-23T00:45:43.785Z,23.93
2023-08-23T00:48:13.754Z,20.53
2023-08-23T00:50:45.030Z,22.13
2023-08-23T00:53:14.717Z,26.53
2023-08-23T00:55:43.367Z,24.40
2023-08-23T00:58:13.195Z,21.87
2023-08-23T01:00:43.321Z,22.57
2023-08-23T01:03:11.558Z,23.53
2023-08-23T01:05:53.460Z,24.90
2023-08-23T01:08:36.713Z,32.97
2023-08-23T01:11:10.383Z,32.60
2023-08-23T01:13:50.479Z,38.93
2023-08-23T01:16:20.114Z,42.20
2023-08-23T01:18:49.076Z,34.07
2023-08-23T01:21:23.614Z,34.33
2023-08-23T01:23:53.779Z,34.60
2023-08-23T01:26:22.072Z,26.80
2023-08-23T01:28:52.542Z,24.30
2023-08-23T01:31:25.837Z,25.07
2023-08-23T01:34:00.425Z,23.63
2023-08-23T01:36:32.120Z,24.63
2023-08-23T01:39:03.640Z,21.70
2023-08-23T01:41:32.451Z,23.43
2023-08-23T01:44:01.954Z,21.60
2023-08-23T01:46:30.626Z,23.43
2023-08-23T01:48:58.985Z,22.00
2023-08-23T01:51:27.297Z,23.00
2023-08-23T01:53:55.628Z,23.70
2023-08-23T01:56:25.397Z,23.77
2023-08-23T01:58:53.735Z,21.97
2023-08-23T02:01:22.075Z,22.30
2023-08-23T02:03:50.341Z,22.40
2023-08-23T02:06:18.704Z,21.97
2023-08-23T02:08:46.931Z,22.80
2023-08-23T02:11:15.326Z,21.20
2023-08-23T02:13:44.917Z,21.20
2023-08-23T02:16:13.355Z,23.20
2023-08-23T02:18:41.805Z,23.53
2023-08-23T02:21:10.038Z,23.43
2023-08-23T02:23:38.256Z,24.53
2023-08-23T02:26:06.488Z,22.37
2023-08-23T02:28:34.718Z,22.53
2023-08-23T02:31:05.120Z,23.03
2023-08-23T02:33:33.527Z,24.97
2023-08-23T02:36:02.498Z,22.63
2023-08-23T02:38:30.730Z,25.87
2023-08-23T02:40:58.990Z,25.53
2023-08-23T02:43:27.298Z,23.50
2023-08-23T02:45:56.425Z,24.20
2023-08-23T02:48:26.165Z,25.20
2023-08-23T02:50:55.024Z,25.93
2023-08-23T02:53:23.443Z,23.60
2023-08-23T02:55:51.781Z,25.53
2023-08-23T02:58:20.220Z,23.40
2023-08-23T03:00:48.627Z,24.23
2023-08-23T03:03:16.892Z,24.43
2023-08-23T03:05:55.811Z,26.00
2023-08-23T03:08:24.430Z,20.33
2023-08-23T03:11:02.994Z,24.43
2023-08-23T03:13:31.404Z,22.93
2023-08-23T03:16:00.404Z,23.53
2023-08-23T03:18:29.258Z,24.13
2023-08-23T03:20:59.095Z,23.43
2023-08-23T03:23:27.935Z,24.53
2023-08-23T03:25:57.770Z,24.30
2023-08-23T03:28:26.095Z,25.93
2023-08-23T03:30:54.602Z,26.83
2023-08-23T03:33:22.985Z,26.27
2023-08-23T03:35:55.358Z,22.60
2023-08-23T03:38:25.088Z,20.77
2023-08-23T03:40:53.940Z,23.60
2023-08-23T03:43:22.195Z,21.50
2023-08-23T03:45:50.747Z,24.10
2023-08-23T03:48:20.363Z,23.87
2023-08-23T03:50:50.092Z,28.23
2023-08-23T03:53:18.696Z,27.93
2023-08-23T03:55:53.661Z,25.23
2023-08-23T03:58:22.328Z,21.10
2023-08-23T04:00:51.858Z,24.30
2023-08-23T04:03:20.369Z,23.43
2023-08-23T04:05:48.933Z,26.27
2023-08-23T04:08:17.842Z,26.07
2023-08-23T04:10:50.038Z,23.90
2023-08-23T04:13:19.269Z,23.53
2023-08-23T04:15:48.044Z,20.93
2023-08-23T04:18:16.390Z,18.53
2023-08-23T04:20:44.825Z,19.53
2023-08-23T04:23:13.079Z,21.60
2023-08-23T04:25:41.298Z,24.17
2023-08-23T04:28:10.933Z,27.13
2023-08-23T04:30:40.465Z,35.37
2023-08-23T04:33:08.676Z,35.43
2023-08-23T04:35:37.007Z,41.23
2023-08-23T04:38:11.128Z,40.20
2023-08-23T04:40:40.426Z,49.40
2023-08-23T04:43:12.684Z,52.03
2023-08-23T04:45:41.593Z,52.83
2023-08-23T04:48:13.279Z,63.10
2023-08-23T04:50:41.883Z,72.90
2023-08-23T04:53:10.342Z,83.40
2023-08-23T04:55:38.552Z,88.13
2023-08-23T04:58:06.847Z,81.80
2023-08-23T05:00:36.432Z,86.33
2023-08-23T05:03:05.635Z,88.10
2023-08-23T05:05:34.123Z,97.53
2023-08-23T05:08:02.444Z,95.80
2023-08-23T05:10:31.319Z,101.03
2023-08-23T05:13:02.042Z,86.60
2023-08-23T05:15:30.485Z,83.40
2023-08-23T05:18:00.695Z,66.70
2023-08-23T05:20:29.141Z,55.33
2023-08-23T05:22:57.409Z,44.37
2023-08-23T05:25:27.376Z,41.90
2023-08-23T05:27:55.851Z,42.33
2023-08-23T05:30:24.884Z,51.57
2023-08-23T05:32:53.893Z,50.63
2023-08-23T05:35:25.145Z,53.80
2023-08-23T05:37:53.556Z,49.00
2023-08-23T05:40:21.768Z,38.23
2023-08-23T05:42:50.152Z,37.43
2023-08-23T05:45:18.799Z,39.83
2023-08-23T05:47:47.364Z,42.77
2023-08-23T05:50:15.945Z,36.53
2023-08-23T05:52:45.591Z,40.07
2023-08-23T05:55:14.247Z,39.27
2023-08-23T05:57:42.474Z,42.70
2023-08-23T06:00:12.354Z,62.37
2023-08-23T06:02:45.474Z,69.83
2023-08-23T06:05:15.285Z,73.43
2023-08-23T06:07:45.487Z,64.17
2023-08-23T06:10:14.073Z,53.10
2023-08-23T06:12:42.324Z,46.87
2023-08-23T06:15:11.189Z,42.33
2023-08-23T06:17:39.562Z,29.90
2023-08-23T06:20:09.266Z,26.97
2023-08-23T06:22:37.485Z,25.67
2023-08-23T06:25:07.921Z,27.27
2023-08-23T06:27:36.217Z,22.90
2023-08-23T06:30:05.272Z,24.60
2023-08-23T06:32:33.620Z,23.93
2023-08-23T06:35:01.985Z,21.30
2023-08-23T06:37:31.469Z,20.30
2023-08-23T06:39:59.774Z,22.67
2023-08-23T06:42:29.920Z,24.57
2023-08-23T06:44:58.308Z,22.73
2023-08-23T06:47:26.676Z,19.07
2023-08-23T06:49:54.981Z,17.57
2023-08-23T06:52:23.291Z,21.23
2023-08-23T06:54:51.816Z,24.90
2023-08-23T06:57:21.656Z,22.37
2023-08-23T06:59:51.286Z,17.93
2023-08-23T07:02:20.154Z,16.47
2023-08-23T07:04:48.435Z,18.20
2023-08-23T07:07:16.729Z,21.73
2023-08-23T07:09:44.982Z,17.27
2023-08-23T07:12:13.225Z,15.50
2023-08-23T07:14:42.531Z,15.30
2023-08-23T07:17:12.094Z,14.70
2023-08-23T07:19:40.362Z,31.27
2023-08-23T07:22:08.599Z,24.87
2023-08-23T07:24:36.970Z,14.90
2023-08-23T07:27:05.792Z,14.27
2023-08-23T07:29:37.493Z,12.00
2023-08-23T07:32:06.284Z,12.60
2023-08-23T07:34:36.113Z,16.13
2023-08-23T07:37:04.401Z,13.20
2023-08-23T07:39:32.673Z,15.33
2023-08-23T07:42:01.171Z,13.87
2023-08-23T07:44:29.534Z,14.03
2023-08-23T07:46:57.989Z,12.20
2023-08-23T07:49:26.336Z,10.30
2023-08-23T07:51:56.032Z,5.90
2023-08-23T07:54:24.414Z,11.80
2023-08-23T07:56:52.689Z,7.00
2023-08-23T07:59:23.090Z,7.10
2023-08-23T08:01:51.473Z,6.63
2023-08-23T08:04:19.890Z,8.93
2023-08-23T08:06:48.117Z,7.60
2023-08-23T08:09:17.796Z,5.80
2023-08-23T08:11:46.381Z,5.30
2023-08-23T08:14:14.949Z,6.90
2023-08-23T08:16:43.257Z,5.13
2023-08-23T08:19:12.177Z,4.37
2023-08-23T08:21:41.581Z,7.73
2023-08-23T08:24:09.947Z,3.77
2023-08-23T08:26:39.735Z,5.17
2023-08-23T08:29:08.177Z,5.70
2023-08-23T08:31:37.907Z,3.60
2023-08-23T08:34:06.667Z,6.83
2023-08-23T08:36:34.989Z,4.13
2023-08-23T08:39:03.388Z,6.13
2023-08-23T08:41:31.824Z,3.13
2023-08-23T08:44:03.368Z,3.80
2023-08-23T08:46:32.060Z,3.83
2023-08-23T08:49:00.295Z,6.35
2023-08-23T08:51:29.758Z,4.63
2023-08-23T08:53:58.803Z,3.27
2023-08-23T08:56:27.581Z,5.43
2023-08-23T08:58:57.321Z,5.33
2023-08-23T09:01:32.371Z,3.23
2023-08-23T09:04:00.943Z,3.90
2023-08-23T09:06:29.896Z,6.03
2023-08-23T09:08:59.781Z,7.00
2023-08-23T09:11:28.211Z,3.90
2023-08-23T09:13:57.123Z,5.90
2023-08-23T09:16:28.126Z,3.47
2023-08-23T09:18:58.914Z,6.22
2023-08-23T09:21:27.167Z,5.20
2023-08-23T09:23:56.014Z,5.07
2023-08-23T09:26:24.509Z,5.05
2023-08-23T09:28:53.084Z,5.05
2023-08-23T09:31:21.414Z,4.90
2023-08-23T09:33:51.147Z,3.85
2023-08-23T09:36:30.338Z,2.95
2023-08-23T09:39:00.363Z,4.68
2023-08-23T09:41:28.869Z,3.28
2023-08-23T09:44:00.600Z,5.22
2023-08-23T09:46:30.033Z,4.63
2023-08-23T09:49:01.908Z,8.38
2023-08-23T09:51:32.249Z,7.07
2023-08-23T09:54:04.052Z,4.47
2023-08-23T09:56:32.372Z,3.95
2023-08-23T09:59:02.261Z,3.78
2023-08-23T10:01:33.761Z,3.72
2023-08-23T10:04:05.204Z,3.05
2023-08-23T10:06:33.611Z,5.38
2023-08-23T10:09:04.664Z,2.67
2023-08-23T10:11:45.713Z,3.95
2023-08-23T10:14:22.221Z,2.97
2023-08-23T10:16:51.777Z,2.08
2023-08-23T10:19:22.534Z,3.47
2023-08-23T10:21:50.867Z,4.10
2023-08-23T10:24:20.279Z,7.05
2023-08-23T10:26:53.235Z,4.55
2023-08-23T10:29:27.882Z,6.82
2023-08-23T10:31:57.130Z,5.75
2023-08-23T10:34:28.013Z,3.05
2023-08-23T10:36:56.924Z,2.92
2023-08-23T10:39:26.274Z,3.70
2023-08-23T10:41:56.035Z,8.30
2023-08-23T10:44:24.854Z,4.88
2023-08-23T10:46:53.547Z,4.28
2023-08-23T10:49:22.496Z,1.55
2023-08-23T10:51:53.820Z,2.95
2023-08-23T10:54:22.415Z,3.67
2023-08-23T10:56:50.651Z,3.28
2023-08-23T10:59:18.917Z,8.85
2023-08-23T11:01:48.152Z,3.50
2023-08-23T11:04:17.354Z,1.98
2023-08-23T11:06:46.542Z,3.45
2023-08-23T11:09:17.948Z,5.30
2023-08-23T11:11:46.711Z,2.85
2023-08-23T11:14:14.996Z,2.95
2023-08-23T11:16:44.862Z,2.00
2023-08-23T11:19:14.467Z,2.85
2023-08-23T11:21:42.675Z,4.28
2023-08-23T11:24:10.989Z,2.65
2023-08-23T11:26:40.651Z,2.45
2023-08-23T11:29:10.271Z,6.35
2023-08-23T11:31:38.782Z,2.63
2023-08-23T11:34:09.838Z,2.97
2023-08-23T11:36:39.423Z,4.70
2023-08-23T11:39:09.030Z,5.65
2023-08-23T11:41:37.438Z,10.07
2023-08-23T11:44:08.592Z,4.28
2023-08-23T11:46:40.992Z,4.30
2023-08-23T11:49:10.824Z,3.30
2023-08-23T11:51:47.826Z,6.75
2023-08-23T11:54:16.731Z,6.70
2023-08-23T11:56:46.234Z,6.68
2023-08-23T11:59:17.832Z,3.83
2023-08-23T12:01:47.479Z,4.85
2023-08-23T12:04:15.795Z,3.40
2023-08-23T12:06:44.448Z,2.63
2023-08-23T12:09:13.250Z,3.45
2023-08-23T12:11:41.711Z,3.38
2023-08-23T12:14:10.057Z,2.15
2023-08-23T12:16:39.921Z,7.15
2023-08-23T12:19:21.321Z,4.47
2023-08-23T12:21:57.789Z,3.10
2023-08-23T12:24:26.415Z,4.60
2023-08-23T12:26:54.824Z,6.78
2023-08-23T12:29:24.016Z,7.70
2023-08-23T12:31:55.705Z,6.43
2023-08-23T12:34:26.739Z,2.17
2023-08-23T12:36:55.041Z,3.35
2023-08-23T12:39:23.266Z,2.63
2023-08-23T12:41:51.575Z,2.80
2023-08-23T12:44:19.909Z,5.55
2023-08-23T12:46:48.149Z,3.67
2023-08-23T12:49:18.354Z,4.28
2023-08-23T12:51:47.839Z,3.75
2023-08-23T12:54:16.160Z,4.25
2023-08-23T12:56:44.493Z,3.20
2023-08-23T12:59:13.020Z,6.53
2023-08-23T13:01:41.494Z,3.30
2023-08-23T13:04:10.241Z,2.28
2023-08-23T13:06:40.279Z,3.75
2023-08-23T13:09:08.583Z,2.75
2023-08-23T13:11:38.390Z,3.00
2023-08-23T13:14:06.799Z,7.43
2023-08-23T13:16:35.129Z,4.32
2023-08-23T13:19:06.312Z,5.78
2023-08-23T13:21:34.672Z,3.05
2023-08-23T13:24:04.577Z,5.20
2023-08-23T13:26:35.174Z,3.55
2023-08-23T13:29:05.713Z,5.43
2023-08-23T13:31:34.126Z,3.15
2023-08-23T13:34:02.612Z,3.50
2023-08-23T13:36:30.924Z,1.60
2023-08-23T13:38:59.248Z,2.85
2023-08-23T13:41:29.049Z,4.13
2023-08-23T13:43:57.809Z,6.30
2023-08-23T13:46:26.449Z,3.28
2023-08-23T13:49:11.957Z,5.93
2023-08-23T13:51:41.492Z,4.40
2023-08-23T13:54:10.007Z,1.10
2023-08-23T13:56:40.397Z,2.05
2023-08-23T13:59:08.670Z,2.22
2023-08-23T14:01:37.273Z,1.48
2023-08-23T14:04:08.528Z,3.90
2023-08-23T14:06:36.899Z,2.70
2023-08-23T14:09:05.279Z,3.22
2023-08-23T14:11:35.552Z,3.70
2023-08-23T14:14:05.421Z,2.80
2023-08-23T14:16:33.642Z,3.08
2023-08-23T14:19:02.106Z,4.57
2023-08-23T14:21:30.346Z,3.83
2023-08-23T14:23:58.589Z,2.88
2023-08-23T14:26:27.035Z,1.73
2023-08-23T14:28:55.270Z,3.50
2023-08-23T14:31:24.891Z,4.18
2023-08-23T14:33:53.200Z,3.05
2023-08-23T14:36:20.494Z,5.68
2023-08-23T14:38:48.953Z,3.28
2023-08-23T14:41:17.554Z,7.85
2023-08-23T14:43:45.817Z,1.70
2023-08-23T14:46:14.338Z,3.50
2023-08-23T14:48:43.998Z,2.83
2023-08-23T14:51:12.323Z,2.97
2023-08-23T14:53:40.717Z,3.30
2023-08-23T14:56:11.573Z,6.35
2023-08-23T14:58:39.933Z,2.15
2023-08-23T15:01:08.275Z,4.38
2023-08-23T15:03:36.702Z,2.97
2023-08-23T15:06:06.952Z,1.98
2023-08-23T15:08:36.317Z,5.40
2023-08-23T15:11:04.716Z,1.73
2023-08-23T15:13:33.522Z,4.85
2023-08-23T15:16:02.772Z,2.88
2023-08-23T15:18:31.400Z,6.20
2023-08-23T15:20:59.828Z,7.68
2023-08-23T15:23:29.878Z,5.20
2023-08-23T15:25:58.214Z,7.32
2023-08-23T15:28:26.567Z,2.58
2023-08-23T15:30:54.904Z,3.92
2023-08-23T15:33:23.196Z,2.97
2023-08-23T15:35:51.535Z,1.73
2023-08-23T15:38:19.822Z,2.97
2023-08-23T15:40:49.517Z,1.45
2023-08-23T15:43:17.784Z,3.17
2023-08-23T15:45:49.329Z,1.48
2023-08-23T15:48:17.661Z,3.13
2023-08-23T15:50:46.511Z,2.17
2023-08-23T15:53:15.864Z,1.80
2023-08-23T15:55:45.054Z,2.65
2023-08-23T15:58:14.768Z,2.20
2023-08-23T16:00:43.047Z,4.57
2023-08-23T16:03:11.575Z,2.97
2023-08-23T16:05:39.813Z,6.78
2023-08-23T16:08:08.528Z,2.50
2023-08-23T16:10:40.165Z,2.78
2023-08-23T16:13:08.483Z,2.85
2023-08-23T16:15:38.199Z,2.28
2023-08-23T16:18:06.973Z,3.25
2023-08-23T16:20:35.357Z,3.42
2023-08-23T16:23:03.642Z,4.47
2023-08-23T16:25:31.970Z,3.33
2023-08-23T16:28:00.262Z,3.47
2023-08-23T16:30:28.552Z,2.55
2023-08-23T16:32:58.375Z,3.88
2023-08-23T16:35:26.720Z,3.42
2023-08-23T16:37:55.072Z,4.15
2023-08-23T16:40:23.346Z,3.03
2023-08-23T16:42:51.642Z,4.95
2023-08-23T16:45:20.521Z,3.58
2023-08-23T16:47:48.887Z,2.47
2023-08-23T16:50:18.947Z,3.05
2023-08-23T16:52:47.810Z,2.63
2023-08-23T16:55:17.215Z,5.53
2023-08-23T16:57:45.672Z,3.58
2023-08-23T17:00:15.210Z,2.30
2023-08-23T17:02:46.770Z,3.88
2023-08-23T17:05:17.112Z,3.35
2023-08-23T17:07:47.276Z,4.15
2023-08-23T17:10:15.996Z,3.53
2023-08-23T17:12:44.416Z,4.40
2023-08-23T17:15:12.870Z,3.53
2023-08-23T17:17:41.445Z,6.32
2023-08-23T17:20:10.750Z,6.22
2023-08-23T17:22:39.174Z,3.45
2023-08-23T17:25:09.934Z,2.75
2023-08-23T17:27:38.269Z,3.88
2023-08-23T17:30:08.660Z,4.72
2023-08-23T17:32:37.287Z,4.55
2023-08-23T17:35:06.583Z,3.25
2023-08-23T17:37:35.970Z,4.82
2023-08-23T17:40:04.720Z,4.57
2023-08-23T17:42:34.428Z,3.58
2023-08-23T17:45:03.261Z,5.60
2023-08-23T17:47:31.542Z,7.53
2023-08-23T17:49:59.790Z,7.22
2023-08-23T17:52:28.161Z,13.15
2023-08-23T17:54:56.757Z,6.60
2023-08-23T17:57:25.023Z,8.13
2023-08-23T17:59:54.629Z,6.65
2023-08-23T18:02:22.898Z,6.47
2023-08-23T18:04:51.338Z,7.22
2023-08-23T18:07:19.584Z,5.10
2023-08-23T18:09:48.070Z,6.82
2023-08-23T18:12:16.278Z,6.70
2023-08-23T18:14:44.591Z,8.25
2023-08-23T18:17:14.224Z,4.97
2023-08-23T18:19:44.107Z,5.10
2023-08-23T18:22:12.302Z,10.63
2023-08-23T18:24:40.669Z,9.13
2023-08-23T18:27:08.945Z,5.72
2023-08-23T18:29:37.381Z,5.90
2023-08-23T18:32:06.040Z,6.40
2023-08-23T18:34:35.860Z,5.95
2023-08-23T18:37:04.182Z,5.70
2023-08-23T18:39:32.464Z,7.77
2023-08-23T18:42:00.760Z,7.47
2023-08-23T18:44:30.297Z,5.20
2023-08-23T18:47:00.350Z,7.03
2023-08-23T18:49:28.655Z,5.43
2023-08-23T18:51:58.515Z,8.93
2023-08-23T18:54:26.861Z,6.27
2023-08-23T18:56:55.082Z,8.47
2023-08-23T18:59:23.494Z,7.53
2023-08-23T19:01:52.652Z,4.93
2023-08-23T19:04:21.318Z,116.63
2023-08-23T19:06:49.701Z,72.30
2023-08-23T19:09:19.528Z,23.70
2023-08-23T19:11:47.841Z,21.40
2023-08-23T19:14:16.345Z,10.17
2023-08-23T19:16:44.686Z,10.93
2023-08-23T19:19:13.020Z,7.60
2023-08-23T19:21:41.377Z,5.73
2023-08-23T19:24:09.572Z,7.73
2023-08-23T19:26:39.163Z,6.03
2023-08-23T19:29:07.364Z,6.10
2023-08-23T19:31:36.385Z,5.70
2023-08-23T19:34:04.992Z,6.70
2023-08-23T19:36:35.453Z,8.00
2023-08-23T19:39:05.423Z,6.30
2023-08-23T19:41:33.633Z,6.77
2023-08-23T19:44:03.325Z,8.87
2023-08-23T19:46:31.725Z,6.27
2023-08-23T19:49:00.034Z,5.10
2023-08-23T19:51:28.484Z,7.10
2023-08-23T19:53:56.925Z,5.00
2023-08-23T19:56:25.778Z,10.90
2023-08-23T19:58:54.039Z,5.00
2023-08-23T20:01:23.725Z,5.33
2023-08-23T20:03:52.716Z,5.53
2023-08-23T20:06:21.018Z,12.17
2023-08-23T20:08:49.256Z,10.87
2023-08-23T20:11:17.684Z,8.47
2023-08-23T20:13:45.953Z,4.40
2023-08-23T20:16:16.005Z,6.17
2023-08-23T20:18:45.652Z,7.13
2023-08-23T20:21:13.970Z,8.60
2023-08-23T20:23:42.338Z,7.43
2023-08-23T20:26:10.558Z,5.80
2023-08-23T20:28:38.899Z,5.90
2023-08-23T20:31:07.173Z,6.57
2023-08-23T20:33:35.615Z,5.93
2023-08-23T20:36:06.387Z,5.73
2023-08-23T20:38:36.371Z,7.63
2023-08-23T20:41:06.288Z,6.83
2023-08-23T20:43:34.864Z,8.73
2023-08-23T20:46:03.899Z,7.20
2023-08-23T20:48:32.947Z,8.07
2023-08-23T20:51:01.468Z,7.70
2023-08-23T20:53:34.793Z,6.87
2023-08-23T20:56:03.591Z,10.43
2023-08-23T20:58:31.974Z,11.50
2023-08-23T21:01:02.084Z,8.90
2023-08-23T21:03:32.156Z,9.97
2023-08-23T21:06:00.432Z,9.67
2023-08-23T21:08:30.003Z,10.27
2023-08-23T21:11:01.537Z,10.93
2023-08-23T21:13:30.087Z,11.10
2023-08-23T21:15:59.252Z,11.67
2023-08-23T21:18:27.901Z,11.23
2023-08-23T21:20:56.638Z,11.77
2023-08-23T21:23:25.135Z,11.40
2023-08-23T21:25:54.868Z,12.00
2023-08-23T21:28:23.135Z,11.60
2023-08-23T21:30:52.397Z,12.93
2023-08-23T21:33:23.056Z,11.80
2023-08-23T21:35:51.724Z,11.63
2023-08-23T21:38:20.190Z,13.10
2023-08-23T21:40:48.691Z,14.37
2023-08-23T21:43:18.280Z,13.97
2023-08-23T21:45:46.648Z,11.67
2023-08-23T21:48:14.860Z,11.70
2023-08-23T21:50:43.236Z,10.63
2023-08-23T21:53:11.472Z,10.93
2023-08-23T21:55:39.706Z,10.70
2023-08-23T21:58:07.996Z,11.13
2023-08-23T22:00:37.896Z,11.80
2023-08-23T22:03:07.581Z,8.70
2023-08-23T22:05:35.884Z,8.93
2023-08-23T22:08:04.954Z,10.07
2023-08-23T22:10:33.682Z,7.07
2023-08-23T22:13:01.956Z,6.13
2023-08-23T22:15:30.212Z,7.67
2023-08-23T22:18:00.874Z,7.50
2023-08-23T22:20:29.283Z,6.63
2023-08-23T22:22:57.568Z,7.93
2023-08-23T22:25:25.757Z,10.37
2023-08-23T22:27:54.102Z,7.23
2023-08-23T22:30:22.502Z,7.57
2023-08-23T22:32:50.903Z,6.63
2023-08-23T22:35:20.730Z,11.50
2023-08-23T22:37:50.032Z,6.93
2023-08-23T22:40:18.615Z,6.67
2023-08-23T22:42:46.882Z,6.63
2023-08-23T22:45:16.161Z,7.93
2023-08-23T22:47:44.501Z,11.67
2023-08-23T22:50:12.779Z,7.63
2023-08-23T22:52:42.426Z,8.70
2023-08-23T22:55:11.531Z,11.07
2023-08-23T22:57:42.083Z,6.10
2023-08-23T23:00:12.010Z,8.90
2023-08-23T23:02:40.471Z,6.03
2023-08-23T23:05:09.638Z,6.47
2023-08-23T23:07:38.722Z,5.73
2023-08-23T23:10:09.635Z,9.77
2023-08-23T23:12:39.504Z,6.20
2023-08-23T23:15:08.768Z,9.00
2023-08-23T23:17:38.266Z,7.87
2023-08-23T23:20:11.048Z,6.03
2023-08-23T23:22:43.009Z,7.03
2023-08-23T23:25:13.059Z,6.13
2023-08-23T23:27:41.286Z,6.23
2023-08-23T23:30:10.512Z,7.67
2023-08-23T23:32:38.825Z,7.43
2023-08-23T23:35:07.325Z,11.33
2023-08-23T23:37:35.631Z,6.17
2023-08-23T23:40:08.690Z,8.17
2023-08-23T23:42:38.436Z,12.30
2023-08-23T23:45:07.775Z,6.13
2023-08-23T23:47:36.168Z,11.60
2023-08-23T23:50:04.574Z,6.73
2023-08-23T23:52:33.203Z,8.77
2023-08-23T23:55:01.578Z,13.53
2023-08-23T23:57:29.889Z,8.13
2023-08-23T23:59:59.513Z,8.47
